| time (UTC) | temp F | wind direction | speed knots | gust knots | rain 1hr in | rain 24hr in | rain mn in | humidity % | barometer mb |
| 20260508023123 | 44 | 3 | 1.7 | 2.6 | 0.00 | 0.00 | 0.00 | 99 | |
| 20260508022123 | 44 | 337 | 0.9 | 1.7 | 0.00 | 0.00 | 0.00 | 99 | |
| 20260508021123 | 44 | 5 | 2.6 | 3.5 | 0.00 | 0.00 | 0.00 | 99 | |
| 20260508020123 | 44 | 31 | 0.9 | 2.6 | 0.00 | 0.00 | 0.00 | 99 | |
| 20260508015123 | 44 | 27 | 2.6 | 4.3 | 0.00 | 0.00 | 0.00 | 99 | |
| 20260508014124 | 44 | 352 | 3.5 | 6.1 | 0.00 | 0.00 | 0.00 | 99 | |
| 20260508013123 | 44 | 344 | 1.7 | 1.7 | 0.00 | 0.00 | 0.00 | 99 | |
| 20260508012103 | 44 | 3 | 0.0 | 0.9 | 0.00 | 0.00 | 0.00 | 99 | |
| 20260508005043 | 44 | 36 | 1.7 | 3.5 | 0.00 | 0.00 | 0.00 | 99 | |
| 20260508004043 | 44 | 31 | 3.5 | 4.3 | 0.00 | 0.00 | 0.00 | 99 | |
| 20260508003023 | 44 | 44 | 0.9 | 2.6 | 0.00 | 0.00 | 0.00 | 99 | |
| 20260508002023 | 45 | 14 | 3.5 | 5.2 | 0.00 | 0.00 | 0.00 | 99 | |
| 20260508001023 | 45 | 307 | 1.7 | 2.6 | 0.00 | 0.00 | 0.00 | 99 | |
| 20260508000023 | 45 | 16 | 4.3 | 4.3 | 0.00 | 0.00 | 0.00 | 99 | |
| 20260507235023 | 45 | 4 | 4.3 | 6.1 | 0.00 | 0.00 | 0.00 | 99 | |
| 20260507234023 | 45 | 16 | 2.6 | 3.5 | 0.00 | 0.00 | 0.00 | 99 | |
| 20260507233003 | 45 | 13 | 2.6 | 3.5 | 0.00 | 0.00 | 0.00 | 99 | |
| 20260507232003 | 45 | 352 | 2.6 | 3.5 | 0.00 | 0.00 | 0.00 | 99 | |
| 20260507231003 | 45 | 16 | 1.7 | 2.6 | 0.00 | 0.00 | 0.00 | 99 | |
| 20260507225943 | 45 | 355 | 0.9 | 1.7 | 0.00 | 0.00 | 0.00 | 99 | |
| 20260507224943 | 45 | 341 | 1.7 | 2.6 | 0.00 | 0.00 | 0.00 | 99 | |
| 20260507223923 | 46 | 354 | 0.9 | 1.7 | 0.00 | 0.00 | 0.00 | 99 | |
| 20260507222923 | 46 | 34 | 1.7 | 2.6 | 0.00 | 0.00 | 0.00 | 99 | |
| 20260507221923 | 46 | 345 | 0.9 | 1.7 | 0.00 | 0.00 | 0.00 | 99 | |
| 20260507220923 | 46 | 44 | 1.7 | 2.6 | 0.00 | 0.00 | 0.00 | 99 | |
| 20260507215923 | 46 | 0 | 1.7 | 2.6 | 0.00 | 0.00 | 0.00 | 99 | |
| 20260507214923 | 46 | 356 | 0.0 | 1.7 | 0.00 | 0.00 | 0.00 | 99 | |
| 20260507213923 | 46 | 44 | 0.9 | 3.5 | 0.00 | 0.00 | 0.00 | 99 | |
| 20260507212903 | 46 | 34 | 1.7 | 3.5 | 0.00 | 0.00 | 0.00 | 99 | |
| 20260507211903 | 46 | 12 | 1.7 | 3.5 | 0.00 | 0.00 | 0.00 | 99 | |
| 20260507210903 | 46 | 1 | 0.9 | 0.9 | 0.00 | 0.00 | 0.00 | 99 | |
| 20260507205843 | 46 | 14 | 2.6 | 4.3 | 0.00 | 0.00 | 0.00 | 99 | |
| 20260507204843 | 46 | 38 | 2.6 | 3.5 | 0.00 | 0.00 | 0.00 | 99 | |
| 20260507203823 | 46 | 41 | 4.3 | 5.2 | 0.00 | 0.00 | 0.00 | 99 | |
| 20260507202823 | 46 | 55 | 1.7 | 2.6 | 0.00 | 0.00 | 0.00 | 99 | |
| 20260507201803 | 46 | 60 | 1.7 | 2.6 | 0.00 | 0.00 | 0.00 | 99 | |
| 20260507200803 | 46 | 17 | 2.6 | 3.5 | 0.00 | 0.00 | 0.00 | 99 | |
| 20260507195803 | 47 | 21 | 1.7 | 2.6 | 0.00 | 0.00 | 0.00 | 99 | |
| 20260507194743 | 47 | 37 | 1.7 | 1.7 | 0.00 | 0.00 | 0.00 | 99 | |
| 20260507193743 | 47 | 315 | 0.9 | 1.7 | 0.00 | 0.00 | 0.00 | 99 | |
| 20260507192723 | 47 | 346 | 0.9 | 1.7 | 0.00 | 0.00 | 0.00 | 99 | |
| 20260507191723 | 47 | 55 | 1.7 | 2.6 | 0.00 | 0.00 | 0.00 | 99 | |
| 20260507190703 | 47 | 354 | 1.7 | 3.5 | 0.00 | 0.00 | 0.00 | 99 | |
| 20260507185703 | 48 | 15 | 1.7 | 3.5 | 0.00 | 0.00 | 0.00 | 99 | |
| 20260507184703 | 48 | 98 | 4.3 | 4.3 | 0.00 | 0.00 | 0.00 | 99 | |
| 20260507183643 | 48 | 99 | 4.3 | 6.1 | 0.00 | 0.00 | 0.00 | 99 | |
| 20260507182643 | 48 | 86 | 2.6 | 4.3 | 0.00 | 0.00 | 0.00 | 99 | |
| 20260507181642 | 48 | 0 | 2.6 | 3.5 | 0.00 | 0.00 | 0.00 | 99 | |
| 20260507180642 | 48 | 20 | 1.7 | 1.7 | 0.00 | 0.00 | 0.00 | 99 | |
| 20260507175622 | 48 | 19 | 1.7 | 1.7 | 0.00 | 0.00 | 0.00 | 99 | |
| 20260507174602 | 48 | 38 | 3.5 | 4.3 | 0.00 | 0.00 | 0.00 | 99 | |
| 20260507173602 | 48 | 6 | 3.5 | 5.2 | 0.00 | 0.00 | 0.00 | 99 | |
| 20260507172542 | 48 | 37 | 4.3 | 7.0 | 0.00 | 0.00 | 0.00 | 99 | |
| 20260507171542 | 49 | 61 | 0.9 | 2.6 | 0.00 | 0.00 | 0.00 | 99 | |
| 20260507170522 | 48 | 51 | 2.6 | 3.5 | 0.00 | 0.00 | 0.00 | 99 | |
| 20260507165522 | 49 | 27 | 1.7 | 1.7 | 0.00 | 0.00 | 0.00 | 99 | |
| 20260507164522 | 49 | 25 | 2.6 | 2.6 | 0.00 | 0.00 | 0.00 | 99 | |
| 20260507163502 | 49 | 344 | 3.5 | 4.3 | 0.00 | 0.00 | 0.00 | 99 | |
| 20260507162502 | 49 | 41 | 1.7 | 3.5 | 0.00 | 0.00 | 0.00 | 99 | |
| 20260507161442 | 49 | 337 | 2.6 | 3.5 | 0.00 | 0.00 | 0.00 | 99 | |
| 20260507160442 | 49 | 0 | 3.5 | 4.3 | 0.00 | 0.00 | 0.00 | 99 | |
| 20260507155422 | 49 | 341 | 3.5 | 4.3 | 0.00 | 0.00 | 0.00 | 99 | |
| 20260507154422 | 49 | 41 | 2.6 | 3.5 | 0.00 | 0.00 | 0.00 | 99 | |
| 20260507153422 | 49 | 45 | 2.6 | 5.2 | 0.00 | 0.00 | 0.00 | 99 | |
| 20260507152402 | 49 | 18 | 2.6 | 3.5 | 0.00 | 0.00 | 0.00 | 99 | |
| 20260507151402 | 49 | 34 | 0.9 | 2.6 | 0.00 | 0.00 | 0.00 | 99 | |
| 20260507150342 | 50 | 10 | 3.5 | 2.6 | 0.00 | 0.00 | 0.00 | 99 | |
| 20260507145342 | 50 | 2 | 3.5 | 3.5 | 0.00 | 0.00 | 0.00 | 99 | |
| 20260507144322 | 50 | 29 | 3.5 | 4.3 | 0.00 | 0.00 | 0.00 | 99 | |
| 20260507143322 | 50 | 17 | 2.6 | 5.2 | 0.00 | 0.00 | 0.00 | 99 | |
| 20260507142322 | 50 | 10 | 1.7 | 2.6 | 0.00 | 0.00 | 0.00 | 99 | |
| 20260507141302 | 50 | 359 | 4.3 | 4.3 | 0.00 | 0.00 | 0.00 | 99 | |
| 20260507140302 | 50 | 44 | 2.6 | 4.3 | 0.00 | 0.00 | 0.00 | 99 | |
| 20260507135242 | 50 | 28 | 4.3 | 5.2 | 0.00 | 0.00 | 0.00 | 99 | |
| 20260507134242 | 50 | 77 | 2.6 | 5.2 | 0.00 | 0.00 | 0.00 | 99 | |
| 20260507133222 | 50 | 46 | 2.6 | 3.5 | 0.00 | 0.00 | 0.00 | 99 | |
| 20260507132222 | 50 | 288 | 1.7 | 3.5 | 0.00 | 0.00 | 0.00 | 99 | |
| 20260507131222 | 50 | 36 | 3.5 | 4.3 | 0.00 | 0.00 | 0.00 | 99 | |
| 20260507130202 | 51 | 48 | 4.3 | 5.2 | 0.00 | 0.00 | 0.00 | 99 | |
| 20260507125202 | 51 | 323 | 4.3 | 8.7 | 0.00 | 0.00 | 0.00 | 99 | |
| 20260507124142 | 51 | 64 | 3.5 | 3.5 | 0.00 | 0.00 | 0.00 | 99 | |
| 20260507123142 | 51 | 33 | 2.6 | 4.3 | 0.00 | 0.00 | 0.00 | 99 | |
| 20260507122122 | 50 | 81 | 2.6 | 4.3 | 0.00 | 0.00 | 0.00 | 99 | |
| 20260507121122 | 50 | 357 | 3.5 | 5.2 | 0.00 | 0.00 | 0.00 | 99 | |
| 20260507120121 | 50 | 33 | 3.5 | 6.1 | 0.00 | 0.00 | 0.00 | 99 | |
| 20260507115102 | 50 | 23 | 3.5 | 4.3 | 0.00 | 0.00 | 0.00 | 99 | |
| 20260507114102 | 49 | 33 | 2.6 | 3.5 | 0.00 | 0.00 | 0.00 | 99 | |
| 20260507113042 | 49 | 34 | 2.6 | 4.3 | 0.00 | 0.00 | 0.00 | 99 | |
| 20260507112041 | 49 | 80 | 3.5 | 4.3 | 0.00 | 0.00 | 0.00 | 99 | |
| 20260507111021 | 48 | 42 | 1.7 | 6.1 | 0.00 | 0.00 | 0.00 | 99 | |
| 20260507110021 | 48 | 68 | 2.6 | 2.6 | 0.00 | 0.00 | 0.00 | 99 | |
| 20260507105001 | 48 | 31 | 2.6 | 4.3 | 0.00 | 0.00 | 0.00 | 99 | |
| 20260507104002 | 48 | 41 | 4.3 | 5.2 | 0.00 | 0.00 | 0.00 | 99 | |
| 20260507103001 | 48 | 18 | 0.9 | 1.7 | 0.00 | 0.00 | 0.00 | 99 | |
| 20260507101941 | 48 | 41 | 2.6 | 7.0 | 0.00 | 0.00 | 0.00 | 99 | |
| 20260507100941 | 47 | 31 | 3.5 | 4.3 | 0.00 | 0.00 | 0.00 | 99 | |
| 20260507095921 | 47 | 49 | 2.6 | 4.3 | 0.00 | 0.00 | 0.00 | 99 | |
| 20260507094921 | 47 | 56 | 2.6 | 5.2 | 0.00 | 0.00 | 0.00 | 99 | |
| 20260507093901 | 47 | 90 | 2.6 | 4.3 | 0.00 | 0.00 | 0.00 | 99 | |
| 20260507092901 | 47 | 44 | 3.5 | 7.0 | 0.00 | 0.00 | 0.00 | 99 | |
| 20260507091901 | 47 | 54 | 5.2 | 6.1 | 0.00 | 0.00 | 0.00 | 99 | |
| 20260507090901 | 47 | 27 | 4.3 | 6.1 | 0.00 | 0.00 | 0.00 | 99 | |
| 20260507085901 | 46 | 28 | 5.2 | 6.1 | 0.00 | 0.00 | 0.00 | 99 | |
| 20260507084901 | 47 | 66 | 6.1 | 6.1 | 0.00 | 0.00 | 0.00 | 99 | |
| 20260507083901 | 46 | 67 | 6.1 | 7.0 | 0.00 | 0.00 | 0.00 | 99 | |
| 20260507082841 | 46 | 6 | 5.2 | 7.0 | 0.00 | 0.00 | 0.00 | 99 | |
| 20260507081843 | 46 | 22 | 4.3 | 7.8 | 0.00 | 0.00 | 0.00 | 99 | |
| 20260507080841 | 46 | 14 | 2.6 | 4.3 | 0.00 | 0.00 | 0.00 | 99 | |
| 20260507075821 | 46 | 40 | 6.1 | 9.6 | 0.00 | 0.00 | 0.00 | 99 | |
| 20260507074821 | 46 | 4 | 3.5 | 6.1 | 0.00 | 0.00 | 0.00 | 99 | |
| 20260507073801 | 46 | 30 | 3.5 | 3.5 | 0.00 | 0.00 | 0.00 | 99 | |
| 20260507072801 | 45 | 3 | 1.7 | 3.5 | 0.00 | 0.00 | 0.00 | 99 | |
| 20260507071801 | 45 | 90 | 4.3 | 7.0 | 0.00 | 0.00 | 0.00 | 99 | |
| 20260507070801 | 45 | 12 | 3.5 | 4.3 | 0.00 | 0.00 | 0.00 | 99 | |
| 20260507065741 | 45 | 354 | 5.2 | 6.1 | 0.00 | 0.00 | 0.00 | 99 | |
| 20260507064721 | 45 | 29 | 1.7 | 3.5 | 0.00 | 0.00 | 0.00 | 99 | |
| 20260507063721 | 44 | 63 | 6.1 | 8.7 | 0.00 | 0.00 | 0.00 | 99 | |
| 20260507062701 | 44 | 48 | 6.1 | 6.1 | 0.00 | 0.00 | 0.00 | 99 | |
| 20260507061701 | 44 | 86 | 5.2 | 7.0 | 0.00 | 0.00 | 0.00 | 99 | |
| 20260507060641 | 44 | 30 | 5.2 | 7.8 | 0.00 | 0.00 | 0.00 | 99 | |
| 20260507055641 | 44 | 40 | 2.6 | 6.1 | 0.00 | 0.00 | 0.00 | 99 | |
| 20260507054641 | 44 | 35 | 4.3 | 7.0 | 0.00 | 0.00 | 0.00 | 99 | |
| 20260507053621 | 44 | 9 | 1.7 | 2.6 | 0.00 | 0.00 | 0.00 | 99 | |
| 20260507052621 | 44 | 39 | 3.5 | 6.1 | 0.00 | 0.00 | 0.00 | 99 | |
| 20260507051621 | 44 | 56 | 3.5 | 5.2 | 0.00 | 0.00 | 0.00 | 99 | |
| 20260507050621 | 44 | 31 | 1.7 | 2.6 | 0.00 | 0.00 | 0.00 | 99 | |
| 20260507045621 | 44 | 2 | 1.7 | 2.6 | 0.00 | 0.00 | 0.00 | 99 | |
| 20260507044621 | 44 | 8 | 2.6 | 3.5 | 0.00 | 0.00 | 0.00 | 99 | |
| 20260507043621 | 44 | 14 | 0.9 | 1.7 | 0.00 | 0.00 | 0.00 | 99 | |
| 20260507042601 | 44 | 16 | 2.6 | 4.3 | 0.00 | 0.00 | 0.00 | 99 | |
| 20260507041601 | 44 | 35 | 2.6 | 3.5 | 0.00 | 0.00 | 0.00 | 99 | |
| 20260507040601 | 44 | 82 | 1.7 | 3.5 | 0.00 | 0.00 | 0.00 | 99 | |
| 20260507035541 | 44 | 27 | 2.6 | 3.5 | 0.00 | 0.00 | 0.00 | 99 | |
| 20260507034541 | 43 | 34 | 4.3 | 7.0 | 0.00 | 0.00 | 0.00 | 99 | |
| 20260507033521 | 43 | 4 | 1.7 | 1.7 | 0.00 | 0.00 | 0.00 | 99 | |
| 20260507032521 | 43 | 59 | 3.5 | 3.5 | 0.00 | 0.00 | 0.00 | 99 | |
| 20260507031521 | 43 | 21 | 2.6 | 3.5 | 0.00 | 0.00 | 0.00 | 99 | |
| 20260507030521 | 43 | 43 | 3.5 | 3.5 | 0.00 | 0.00 | 0.00 | 99 | |
| 20260507025521 | 43 | 14 | 2.6 | 3.5 | 0.00 | 0.00 | 0.00 | 99 | |
| 20260507024521 | 43 | 30 | 2.6 | 6.1 | 0.00 | 0.00 | 0.00 | 99 |